»·PEaware :: N6515D O24-KMIT

N6515D :: O24-KMIT

FLIGHT INFORMATION

Flight Status: Arrived
Operator: Privately registered:
United States
More flights under this callsign
Pilot: Charles S. (11412)
Aircraft: Unknown
(DA62)
More flights by this aircraft type
Origin: O24 Lee Vining
United States
Destination: KMIT Shafter-Minter
United States
More flights between these airports :: More routes between these airports
Route:
File this flight plan on PilotEdge
Remarks:
Altitude:
(Current/Filed)
13,500ft
Speed:
(Current/Filed)
270kts
Departed: 10-Oct-18 03:10 PM
Arrived: 10-Oct-18 04:04 PM
Distance/Time
Traveled:
147nm/0:53
Distance/Time
To Go:
Arrived

Flight Plot

Page will automatically refresh every two minutes.

Flight plan parsing failed; only flown route is shown


Map Options




Map Legend


Flown Route
Filed Route
Departure Airport
Arrival Airport
Navaid (VOR, NDB)
Fix

Horizontal Profiles

Position Reports

Time Latitude Longitude Heading Altitude Ground
Speed
10-Oct-18 15:10 37.953326 -119.104850 164 6788ft 20kts
10-Oct-18 15:11 37.953233 -119.103972 342 6787ft 31kts
10-Oct-18 15:12 37.976609 -119.108931 51 7153ft 120kts
10-Oct-18 15:13 37.955985 -119.095980 210 7779ft 132kts
10-Oct-18 15:14 37.918892 -119.106585 184 8398ft 143kts
10-Oct-18 15:15 37.878619 -119.108565 183 9003ft 147kts
10-Oct-18 15:16 37.838768 -119.110053 183 9774ft 141kts
10-Oct-18 15:17 37.800061 -119.111426 183 10568ft 139kts
10-Oct-18 15:18 37.761528 -119.112825 184 11366ft 139kts
10-Oct-18 15:19 37.722889 -119.114230 184 12166ft 139kts
10-Oct-18 15:20 37.685746 -119.115579 184 12931ft 140kts
10-Oct-18 15:21 37.653399 -119.116748 184 13588ft 141kts
10-Oct-18 15:22 37.601514 -119.118637 184 13649ft 175kts
10-Oct-18 15:23 37.560445 -119.120092 184 13647ft 181kts
10-Oct-18 15:24 37.510407 -119.121897 184 13646ft 182kts
10-Oct-18 15:25 37.459507 -119.123694 184 13646ft 183kts
10-Oct-18 15:26 37.400257 -119.125763 184 13645ft 183kts
10-Oct-18 15:27 37.358090 -119.127268 184 13645ft 183kts
10-Oct-18 15:28 37.307288 -119.129024 184 13646ft 183kts
10-Oct-18 15:29 37.256417 -119.130895 184 13645ft 183kts
10-Oct-18 15:30 37.206154 -119.132711 184 13645ft 183kts
10-Oct-18 15:31 37.155174 -119.134520 184 13645ft 183kts
10-Oct-18 15:32 37.104306 -119.136331 184 13645ft 183kts
10-Oct-18 15:33 37.053720 -119.138112 184 13645ft 183kts
10-Oct-18 15:34 37.002779 -119.139897 184 13645ft 183kts
10-Oct-18 15:35 36.952086 -119.141723 184 13645ft 183kts
10-Oct-18 15:36 36.901257 -119.143526 184 13645ft 183kts
10-Oct-18 15:37 36.851151 -119.145297 184 13646ft 183kts
10-Oct-18 15:38 36.800366 -119.147089 184 13646ft 183kts
10-Oct-18 15:39 36.749515 -119.148904 184 13646ft 183kts
10-Oct-18 15:40 36.698509 -119.150681 184 13646ft 183kts
10-Oct-18 15:41 36.647633 -119.152467 184 13646ft 183kts
10-Oct-18 15:42 36.596741 -119.154254 184 13646ft 183kts
10-Oct-18 15:43 36.545895 -119.156045 184 13646ft 183kts
10-Oct-18 15:44 36.494973 -119.157822 184 13646ft 183kts
10-Oct-18 15:45 36.444095 -119.159600 184 13645ft 183kts
10-Oct-18 15:46 36.393419 -119.161392 184 13645ft 183kts
10-Oct-18 15:47 36.333911 -119.163452 184 13645ft 183kts
10-Oct-18 15:48 36.283390 -119.165209 184 13645ft 183kts
10-Oct-18 15:49 36.240970 -119.166682 184 13645ft 183kts
10-Oct-18 15:50 36.189926 -119.168476 184 12954ft 184kts
10-Oct-18 15:51 36.138867 -119.170243 183 12045ft 182kts
10-Oct-18 15:52 36.091133 -119.171893 183 11285ft 179kts
10-Oct-18 15:53 36.039475 -119.173667 183 10549ft 177kts
10-Oct-18 15:54 35.990313 -119.175402 183 9838ft 176kts
10-Oct-18 15:55 35.941574 -119.177146 182 9129ft 175kts
10-Oct-18 15:56 35.894178 -119.178780 182 8434ft 173kts
10-Oct-18 15:57 35.846640 -119.180416 182 7744ft 172kts
10-Oct-18 15:58 35.799178 -119.182048 182 7051ft 171kts
10-Oct-18 15:59 35.751731 -119.183677 181 6353ft 170kts
10-Oct-18 16:00 35.696998 -119.185556 181 5542ft 169kts
10-Oct-18 16:01 35.656334 -119.193517 191 4172ft 191kts
10-Oct-18 16:02 35.608604 -119.209574 190 2925ft 162kts
10-Oct-18 16:03 35.566379 -119.221461 188 2028ft 162kts
10-Oct-18 16:04 35.530255 -119.222807 155 1252ft 108kts
10-Oct-18 16:05 35.510735 -119.201078 135 452ft 87kts
10-Oct-18 16:06 35.505230 -119.192016 135 424ft 22kts
10-Oct-18 16:07 35.503175 -119.183922 347 424ft 17kts
10-Oct-18 16:08 35.503564 -119.183782 3 424ft 0kts

Navigation Log

Ident Type
Flight plan parsing failed, navigation log unavailable